Time;durP1;ratioP1;P1;durP2;ratioP2;P2;SDS_P1;SDS_P2;PMS_P1;PMS_P2;Temp;Humidity;BMP_temperature;BMP_pressure;BME280_temperature;BME280_humidity;BME280_pressure;Samples;Min_cycle;Max_cycle;Signal;HPM_P1;HPM_P2
2022/12/27 00:00:19;;;;;;;4.75;0.70;;;;;;;8.59;70.58;101402.75;5012166;28;20548;-75
2022/12/27 00:02:45;;;;;;;4.93;0.90;;;;;;;8.55;69.88;101406.06;5012432;28;20503;-74
2022/12/27 00:05:11;;;;;;;2.60;0.63;;;;;;;8.51;70.31;101404.81;5010872;28;20408;-75
2022/12/27 00:07:37;;;;;;;4.95;0.55;;;;;;;8.50;70.09;101405.84;5011830;28;20831;-74
2022/12/27 00:10:03;;;;;;;2.40;0.70;;;;;;;8.49;70.82;101421.25;5005686;28;20438;-75
2022/12/27 00:12:29;;;;;;;4.00;0.50;;;;;;;8.45;70.57;101417.31;5004784;28;20745;-75
2022/12/27 00:14:54;;;;;;;1.87;0.40;;;;;;;8.43;70.96;101418.56;5012296;28;20501;-74
2022/12/27 00:17:19;;;;;;;1.60;0.60;;;;;;;8.37;70.75;101413.94;5011603;28;20400;-74
2022/12/27 00:19:45;;;;;;;2.50;0.53;;;;;;;8.39;71.48;101428.09;5010916;28;20425;-75
2022/12/27 00:22:10;;;;;;;1.10;0.77;;;;;;;8.37;71.41;101422.06;5011701;28;20404;-75
2022/12/27 00:24:35;;;;;;;3.97;0.80;;;;;;;8.29;71.34;101423.94;5011039;28;20443;-75
2022/12/27 00:27:01;;;;;;;2.30;0.80;;;;;;;8.25;71.97;101428.06;5012104;28;20891;-75
2022/12/27 00:29:26;;;;;;;0.30;0.30;;;;;;;8.27;71.53;101422.44;5011652;28;20491;-74
2022/12/27 00:31:51;;;;;;;2.33;0.73;;;;;;;8.27;72.52;101433.25;5011982;28;20443;-75
2022/12/27 00:34:17;;;;;;;2.70;0.50;;;;;;;8.21;72.43;101423.25;5011424;28;20405;-75
2022/12/27 00:36:42;;;;;;;5.40;0.70;;;;;;;8.19;72.34;101426.19;5011732;28;21033;-74
2022/12/27 00:39:09;;;;;;;2.60;0.87;;;;;;;8.19;72.11;101430.75;5011736;28;20420;-74
2022/12/27 00:41:35;;;;;;;2.35;0.75;;;;;;;8.15;72.46;101427.63;5011307;28;20404;-75
2022/12/27 00:44:00;;;;;;;3.40;0.73;;;;;;;8.16;72.62;101437.41;5011848;28;20400;-74
2022/12/27 00:46:25;;;;;;;3.70;0.70;;;;;;;8.17;72.92;101438.22;5011683;28;20935;-75
2022/12/27 00:48:51;;;;;;;3.40;1.00;;;;;;;8.17;73.26;101446.31;5010664;28;20416;-75
2022/12/27 00:51:19;;;;;;;3.47;0.90;;;;;;;8.16;72.90;101447.38;5011625;28;20965;-75
2022/12/27 00:53:45;;;;;;;2.85;0.90;;;;;;;8.13;73.03;101445.91;5004374;28;20437;-74
2022/12/27 00:56:17;;;;;;;3.13;0.90;;;;;;;8.16;72.83;101447.38;5013053;28;20393;-75
2022/12/27 00:58:42;;;;;;;3.10;0.70;;;;;;;8.12;73.42;101451.50;5008729;28;20502;-74
2022/12/27 01:01:10;;;;;;;7.00;1.00;;;;;;;8.09;73.43;101454.63;5007213;28;20425;-75
2022/12/27 01:03:36;;;;;;;3.45;0.85;;;;;;;8.04;73.06;101457.91;5011449;28;20463;-75
2022/12/27 01:06:10;;;;;;;1.23;0.70;;;;;;;8.05;73.17;101458.75;5011349;28;20405;-74
2022/12/27 01:08:36;;;;;;;5.05;0.80;;;;;;;8.01;73.71;101460.19;5010763;28;20864;-75
2022/12/27 01:11:02;;;;;;;2.70;1.00;;;;;;;8.02;73.61;101456.47;5011563;28;20499;-75
2022/12/27 01:13:27;;;;;;;3.38;0.88;;;;;;;8.02;73.61;101456.47;5011054;28;20408;-75
2022/12/27 01:15:53;;;;;;;3.67;0.70;;;;;;;8.02;74.55;101460.00;5011312;28;20487;-74
2022/12/27 01:18:18;;;;;;;1.43;0.70;;;;;;;7.98;73.92;101455.19;5011363;28;20443;-74
2022/12/27 01:20:43;;;;;;;1.60;0.70;;;;;;;7.99;73.89;101468.50;5010775;28;20405;-75
2022/12/27 01:23:09;;;;;;;4.00;0.90;;;;;;;7.93;74.46;101466.63;5011217;28;20593;-75
2022/12/27 01:25:34;;;;;;;2.90;0.90;;;;;;;7.93;74.51;101469.31;5011056;28;20401;-74
2022/12/27 01:27:59;;;;;;;3.33;0.77;;;;;;;7.91;74.12;101467.84;5011168;28;20430;-75
2022/12/27 01:30:24;;;;;;;3.23;0.93;;;;;;;7.89;74.80;101469.91;5011077;28;20431;-75
2022/12/27 01:32:50;;;;;;;1.93;1.20;;;;;;;7.89;74.92;101476.16;5010840;28;20408;-74
2022/12/27 01:35:15;;;;;;;4.60;0.60;;;;;;;7.80;74.76;101472.78;5013978;28;20496;-74
2022/12/27 01:37:40;;;;;;;3.13;0.77;;;;;;;7.77;75.00;101480.47;5013485;28;20883;-75
2022/12/27 01:40:06;;;;;;;2.00;0.70;;;;;;;7.81;75.44;101477.16;5014942;28;20927;-75
2022/12/27 01:45:23;;;;;;;2.50;0.55;;;;;;;7.83;75.34;101479.66;5002494;28;20407;-75
2022/12/27 01:47:57;;;;;;;3.38;0.88;;;;;;;7.83;74.70;101485.91;5014490;28;20748;-74
2022/12/27 01:50:34;;;;;;;2.10;0.50;;;;;;;7.75;75.14;101485.22;5015024;28;20411;-75
2022/12/27 01:53:18;;;;;;;2.50;0.73;;;;;;;7.75;75.46;101493.31;5014737;28;20409;-75
2022/12/27 01:55:52;;;;;;;1.40;0.68;;;;;;;7.72;75.39;101499.13;5013613;28;20412;-75
2022/12/27 01:58:30;;;;;;;2.75;0.68;;;;;;;7.73;75.59;101498.94;5007286;28;20955;-75
2022/12/27 02:00:56;;;;;;;3.05;0.82;;;;;;;7.68;75.32;101506.78;5014592;28;20404;-74
2022/12/27 02:03:32;;;;;;;2.90;0.70;;;;;;;7.67;76.01;101501.59;5014581;28;20836;-75
2022/12/27 02:06:01;;;;;;;1.85;0.65;;;;;;;7.61;75.82;101492.41;5014603;28;20404;-75
2022/12/27 02:08:36;;;;;;;5.65;1.02;;;;;;;7.63;75.72;101497.63;5014549;28;20507;-74
2022/12/27 02:11:03;;;;;;;3.65;1.00;;;;;;;7.63;75.61;101497.63;5014137;28;20772;-74
2022/12/27 02:13:32;;;;;;;5.35;0.80;;;;;;;7.63;76.01;101503.03;5014346;28;20907;-75
2022/12/27 02:15:57;;;;;;;1.80;0.75;;;;;;;7.58;76.02;101494.69;5014632;28;20409;-74
2022/12/27 02:18:23;;;;;;;4.37;1.00;;;;;;;7.58;76.13;101500.91;5005848;28;20451;-74
2022/12/27 02:21:26;;;;;;;6.43;2.92;;;;;;;7.56;76.31;101505.69;5013183;28;20435;-75
2022/12/27 02:24:25;;;;;;;2.10;1.00;;;;;;;7.54;76.23;101505.03;5014251;28;20405;-74
2022/12/27 02:27:11;;;;;;;1.80;1.40;;;;;;;7.54;76.28;101504.22;5011793;28;20409;-74
2022/12/27 02:29:45;;;;;;;3.05;1.50;;;;;;;7.53;75.97;101500.69;5007257;28;20570;-75
2022/12/27 02:32:28;;;;;;;3.00;1.70;;;;;;;7.53;76.69;101502.56;5013926;28;20499;-75
2022/12/27 02:35:13;;;;;;;2.33;0.90;;;;;;;7.49;76.56;101503.97;5014408;28;20404;-75
2022/12/27 02:37:50;;;;;;;2.20;0.93;;;;;;;7.40;77.02;101502.50;5006753;28;20756;-75
2022/12/27 02:55:20;;;;;;;3.97;1.02;;;;;;;7.28;77.40;101508.44;5013756;28;20432;-75
2022/12/27 02:58:06;;;;;;;3.10;1.20;;;;;;;7.28;77.34;101510.28;5011887;28;20433;-75
2022/12/27 03:04:17;;;;;;;2.50;0.90;;;;;;;7.26;77.41;101510.50;5007015;28;20391;-74
2022/12/27 03:07:11;;;;;;;5.57;1.73;;;;;;;7.06;76.98;101498.75;5005818;28;20404;-75
2022/12/27 03:16:08;;;;;;;1.80;1.48;;;;;;;7.17;77.46;101513.53;5013438;28;20488;-75
2022/12/27 03:18:48;;;;;;;5.70;1.25;;;;;;;7.18;77.50;101524.13;5012106;28;20420;-74
2022/12/27 03:26:50;;;;;;;4.07;1.43;;;;;;;7.07;77.74;101532.75;5005054;28;20921;-75
2022/12/27 03:35:06;;;;;;;2.63;1.05;;;;;;;7.04;77.62;101526.94;5013100;28;20961;-75
2022/12/27 03:40:26;;;;;;;6.03;1.50;;;;;;;6.99;77.75;101515.88;5008599;28;20412;-75
2022/12/27 03:43:11;;;;;;;2.63;1.35;;;;;;;7.01;77.80;101516.53;5012482;28;20411;-74
2022/12/27 03:49:20;;;;;;;3.22;1.20;;;;;;;6.89;77.50;101518.09;5012771;28;20407;-75
2022/12/27 03:52:07;;;;;;;4.50;1.42;;;;;;;6.92;77.96;101525.78;5011403;28;20393;-74
2022/12/27 03:54:36;;;;;;;6.18;1.60;;;;;;;6.84;77.96;101523.25;5012367;28;20941;-75
2022/12/27 03:57:05;;;;;;;3.92;1.15;;;;;;;6.85;77.61;101530.31;5011110;28;20879;-74
2022/12/27 03:59:30;;;;;;;5.25;1.33;;;;;;;6.85;77.54;101524.91;5012418;28;20420;-75
2022/12/27 04:01:57;;;;;;;2.58;1.15;;;;;;;6.89;77.97;101523.47;5012146;28;20401;-74
2022/12/27 04:04:23;;;;;;;1.73;1.05;;;;;;;6.82;77.69;101538.78;5012450;28;20409;-74
2022/12/27 04:06:48;;;;;;;1.92;1.10;;;;;;;6.71;77.57;101530.19;5014545;28;20412;-74
2022/12/27 04:36:34;;;;;;;2.35;1.00;;;;;;;6.70;77.04;101516.91;5011134;28;20466;-74
2022/12/27 04:38:59;;;;;;;2.60;1.23;;;;;;;6.67;76.82;101518.13;5009996;28;20935;-74
2022/12/27 04:55:25;;;;;;;5.70;2.20;;;;;;;6.47;76.86;101525.19;5009397;28;20783;-75
2022/12/27 04:57:51;;;;;;;7.25;2.60;;;;;;;6.46;76.99;101519.97;5011338;28;20915;-75
2022/12/27 05:03:07;;;;;;;3.83;1.00;;;;;;;6.59;76.33;101530.88;5021791;28;20412;-74
2022/12/27 05:05:34;;;;;;;3.97;2.00;;;;;;;6.61;76.48;101524.28;5008757;28;20444;-74
2022/12/27 05:16:13;;;;;;;3.30;0.80;;;;;;;6.58;75.89;101537.31;5009371;28;20404;-74
2022/12/27 05:18:38;;;;;;;5.20;1.10;;;;;;;6.59;75.85;101536.25;5007475;28;20412;-75
2022/12/27 05:21:05;;;;;;;3.83;1.10;;;;;;;6.56;76.05;101552.81;5009466;28;20420;-75
2022/12/27 05:26:25;;;;;;;4.60;0.77;;;;;;;6.52;76.29;101556.94;5010731;28;20396;-75
2022/12/27 05:28:52;;;;;;;2.00;1.00;;;;;;;6.50;76.20;101564.34;5004189;28;20421;-74
2022/12/27 05:31:19;;;;;;;4.20;0.82;;;;;;;6.52;76.19;101568.50;5003877;28;20396;-75
2022/12/27 05:33:44;;;;;;;2.23;0.80;;;;;;;6.48;76.29;101564.56;5009514;28;20492;-75
2022/12/27 05:36:10;;;;;;;3.73;1.40;;;;;;;6.48;76.20;101567.25;5009676;28;20480;-75
2022/12/27 05:38:35;;;;;;;2.90;1.23;;;;;;;6.49;76.18;101573.44;5009455;28;20899;-74
2022/12/27 05:41:01;;;;;;;2.22;1.05;;;;;;;6.42;76.20;101565.28;5011333;28;20416;-74
2022/12/27 05:43:27;;;;;;;3.80;1.13;;;;;;;6.38;75.89;101569.41;5008698;28;20590;-74
2022/12/27 05:45:53;;;;;;;3.58;1.20;;;;;;;6.41;75.97;101560.97;5009662;28;20447;-75
2022/12/27 05:48:19;;;;;;;2.55;1.15;;;;;;;6.41;75.73;101560.97;5010865;28;20412;-74
2022/12/27 05:50:44;;;;;;;4.10;1.07;;;;;;;6.35;75.62;101563.56;5010742;28;20397;-75
2022/12/27 05:53:10;;;;;;;2.87;0.93;;;;;;;6.32;76.09;101562.09;5007649;28;20895;-75
2022/12/27 05:55:35;;;;;;;4.47;2.33;;;;;;;6.32;75.74;101563.97;5009045;28;20419;-74
2022/12/27 05:58:00;;;;;;;5.20;1.63;;;;;;;6.31;75.55;101567.66;5010725;28;20416;-74
2022/12/27 06:00:26;;;;;;;1.95;1.02;;;;;;;6.26;75.42;101557.47;5008301;28;21025;-75
2022/12/27 06:02:51;;;;;;;3.23;0.97;;;;;;;6.22;75.23;101554.31;5008132;28;20412;-75
2022/12/27 06:05:17;;;;;;;3.10;1.43;;;;;;;6.23;75.56;101565.91;5009577;28;20408;-75
2022/12/27 06:07:42;;;;;;;3.30;1.15;;;;;;;6.22;74.84;101559.69;5005701;28;20883;-74
2022/12/27 06:10:08;;;;;;;6.63;1.10;;;;;;;6.21;74.90;101566.13;5004501;28;20412;-75
2022/12/27 06:12:34;;;;;;;3.65;1.10;;;;;;;6.19;75.31;101567.34;5007137;28;20775;-75
2022/12/27 06:14:59;;;;;;;1.53;1.07;;;;;;;6.21;75.04;101576.88;4999184;28;20428;-75
2022/12/27 06:17:24;;;;;;;2.67;1.17;;;;;;;6.24;75.43;101575.66;5005892;28;20405;-75
2022/12/27 06:19:49;;;;;;;3.70;1.10;;;;;;;6.24;75.21;101571.13;5007944;28;20420;-75
2022/12/27 06:22:15;;;;;;;6.03;1.50;;;;;;;6.19;75.01;101581.59;5010964;28;20412;-75
2022/12/27 06:24:40;;;;;;;5.27;1.70;;;;;;;6.12;75.08;101580.72;5011095;28;20803;-74
2022/12/27 06:27:05;;;;;;;3.45;1.92;;;;;;;6.18;75.08;101582.66;5013023;28;20412;-74
2022/12/27 06:29:30;;;;;;;6.40;2.70;;;;;;;6.19;75.33;101580.81;5007804;28;20431;-75
2022/12/27 06:31:56;;;;;;;5.00;3.67;;;;;;;6.21;74.86;101582.28;5006681;28;20416;-74
2022/12/27 06:34:21;;;;;;;3.13;1.73;;;;;;;6.24;75.00;101579.19;5011135;28;20918;-74
2022/12/27 06:36:49;;;;;;;2.03;1.27;;;;;;;6.22;75.05;101592.00;5013510;28;20938;-74
2022/12/27 06:39:19;;;;;;;3.77;1.20;;;;;;;6.20;74.72;101594.06;5013428;28;20522;-75
2022/12/27 06:41:44;;;;;;;4.18;1.05;;;;;;;6.19;75.16;101587.00;5010440;28;20956;-74
2022/12/27 06:44:10;;;;;;;2.67;1.43;;;;;;;6.21;74.92;101584.13;5009181;28;20500;-74
2022/12/27 06:46:35;;;;;;;3.97;1.60;;;;;;;6.21;74.76;101586.81;5013501;28;20404;-74
2022/12/27 06:49:00;;;;;;;4.67;1.40;;;;;;;6.17;75.33;101597.13;5012582;28;20400;-74
2022/12/27 06:51:26;;;;;;;3.00;2.10;;;;;;;6.18;75.27;101603.34;5013684;28;20400;-74
2022/12/27 06:53:51;;;;;;;4.20;1.83;;;;;;;6.15;75.69;101604.56;5012527;28;20771;-75
2022/12/27 06:56:19;;;;;;;2.63;1.30;;;;;;;6.14;75.07;101608.28;5013213;28;20400;-75
2022/12/27 06:58:45;;;;;;;2.80;0.90;;;;;;;6.11;75.71;101610.50;5013144;28;20436;-75
2022/12/27 07:01:12;;;;;;;10.35;2.47;;;;;;;6.12;75.59;101606.78;5013323;28;20397;-75
2022/12/27 07:03:37;;;;;;;10.07;3.65;;;;;;;6.15;75.79;101614.50;5012801;28;20413;-74
2022/12/27 07:06:04;;;;;;;4.03;1.83;;;;;;;6.15;75.23;101617.19;5011338;28;20499;-75
2022/12/27 07:08:30;;;;;;;2.40;1.33;;;;;;;6.16;74.90;101619.66;5012423;28;20423;-74
2022/12/27 07:11:05;;;;;;;2.43;1.00;;;;;;;6.12;75.25;101621.09;5013065;28;20400;-75
2022/12/27 07:13:33;;;;;;;6.70;1.38;;;;;;;5.92;74.94;101622.69;5010295;28;20417;-74
2022/12/27 07:15:58;;;;;;;2.65;1.38;;;;;;;5.87;75.64;101619.69;5022621;28;20484;-74
2022/12/27 07:18:24;;;;;;;7.93;1.83;;;;;;;5.92;75.49;101625.38;5011977;28;20507;-74
2022/12/27 07:20:49;;;;;;;14.23;4.13;;;;;;;5.98;75.67;101624.63;5012886;28;20397;-74
2022/12/27 07:23:14;;;;;;;11.10;4.17;;;;;;;6.05;75.34;101624.72;5011538;28;20412;-75
2022/12/27 07:25:40;;;;;;;12.23;4.97;;;;;;;6.02;75.08;101631.31;5016573;28;20437;-74
2022/12/27 07:28:05;;;;;;;11.87;4.93;;;;;;;6.07;75.35;101634.25;5021384;28;20411;-75
2022/12/27 07:30:30;;;;;;;12.60;5.33;;;;;;;6.10;75.23;101630.34;5012233;28;20910;-75
2022/12/27 07:32:55;;;;;;;14.53;5.10;;;;;;;6.10;75.71;101638.44;5012434;28;20397;-74
2022/12/27 07:35:21;;;;;;;14.03;4.67;;;;;;;6.12;75.58;101633.72;5009292;28;20907;-74
2022/12/27 07:37:46;;;;;;;10.60;3.80;;;;;;;6.13;75.27;101633.50;5008649;28;20442;-74
2022/12/27 07:40:11;;;;;;;7.47;3.73;;;;;;;6.17;75.33;101631.28;5008522;28;20424;-74
2022/12/27 07:42:36;;;;;;;9.23;3.03;;;;;;;6.18;75.89;101632.94;5010254;28;20915;-74
2022/12/27 07:45:02;;;;;;;9.80;2.37;;;;;;;6.13;75.57;101621.91;5008277;28;20418;-74
2022/12/27 07:47:27;;;;;;;3.80;2.20;;;;;;;6.11;75.47;101624.78;5010604;28;20412;-74
2022/12/27 07:57:04;;;;;;;4.60;1.67;;;;;;;6.19;75.63;101640.81;4999233;28;20465;-74
2022/12/27 07:59:29;;;;;;;2.42;1.20;;;;;;;6.21;75.43;101646.03;5006562;28;21329;-74
2022/12/27 08:02:03;;;;;;;2.38;1.77;;;;;;;6.23;75.89;101638.59;5006487;28;20497;-74
2022/12/27 08:04:29;;;;;;;1.48;1.30;;;;;;;6.24;75.52;101643.81;4998330;28;20817;-75
2022/12/27 08:07:10;;;;;;;4.10;1.50;;;;;;;6.26;76.09;101649.81;5008612;28;20398;-75
2022/12/27 08:09:38;;;;;;;3.03;1.20;;;;;;;6.31;75.90;101643.03;5003152;28;20409;-75
2022/12/27 08:12:03;;;;;;;4.53;2.20;;;;;;;6.29;75.65;101645.09;5004635;28;20511;-74
2022/12/27 08:14:29;;;;;;;7.33;2.40;;;;;;;6.31;75.42;101654.66;5004359;28;20414;-74
2022/12/27 08:17:01;;;;;;;3.97;2.17;;;;;;;6.39;75.90;101651.03;5002571;28;20409;-75
2022/12/27 08:19:26;;;;;;;5.93;3.63;;;;;;;6.47;75.70;101665.22;5009595;28;20416;-74
2022/12/27 08:21:52;;;;;;;7.07;3.30;;;;;;;6.52;75.88;101659.25;5006169;28;20461;-75
2022/12/27 08:24:17;;;;;;;7.57;3.83;;;;;;;6.56;75.73;101657.84;5003082;28;20408;-74
2022/12/27 08:30:04;;;;;;;8.35;3.10;;;;;;;6.58;75.53;101650.44;3575656;28;21611;-74
2022/12/27 08:32:30;;;;;;;3.80;2.23;;;;;;;6.64;75.44;101665.81;5010068;28;20786;-74
2022/12/27 08:34:55;;;;;;;5.63;2.37;;;;;;;6.65;75.27;101660.22;5002261;28;20414;-74
2022/12/27 08:37:20;;;;;;;4.45;2.15;;;;;;;6.80;75.10;101657.50;4999680;28;21345;-74
2022/12/27 08:39:45;;;;;;;4.90;2.57;;;;;;;6.97;74.89;101663.47;5008525;28;20419;-74
2022/12/27 08:42:12;;;;;;;4.40;1.93;;;;;;;7.07;74.48;101662.16;5006543;28;20450;-74
2022/12/27 08:44:38;;;;;;;5.00;1.80;;;;;;;7.23;74.40;101667.28;5005097;28;20411;-75
2022/12/27 08:47:04;;;;;;;3.53;1.90;;;;;;;7.44;74.21;101671.81;5010253;28;20401;-75
2022/12/27 08:49:29;;;;;;;7.15;2.05;;;;;;;7.26;73.58;101671.44;5002781;28;20726;-74
2022/12/27 08:51:55;;;;;;;3.00;1.60;;;;;;;7.27;73.85;101678.50;5006051;28;20424;-72
2022/12/27 08:54:20;;;;;;;5.83;1.93;;;;;;;7.28;73.56;101685.53;5000974;28;20451;-74
2022/12/27 08:56:45;;;;;;;4.67;1.67;;;;;;;7.26;73.53;101685.75;5009325;28;20462;-75
2022/12/27 08:59:10;;;;;;;3.93;1.43;;;;;;;7.14;74.03;101681.91;5010352;28;20417;-75
2022/12/27 09:01:36;;;;;;;1.93;1.77;;;;;;;7.41;73.57;101687.56;5010038;28;20404;-74
2022/12/27 09:04:01;;;;;;;2.38;2.13;;;;;;;7.44;73.26;101690.69;5005673;28;20412;-74
2022/12/27 09:06:26;;;;;;;3.23;1.60;;;;;;;7.37;73.84;101689.78;4996758;28;21014;-74
2022/12/27 09:08:54;;;;;;;5.33;2.57;;;;;;;7.32;74.57;101692.22;5009519;28;20397;-74
2022/12/27 09:11:21;;;;;;;9.32;5.15;;;;;;;7.32;74.66;101694.91;5010316;28;20404;-74
2022/12/27 09:13:47;;;;;;;10.23;4.60;;;;;;;7.38;74.91;101694.13;5004036;28;20414;-74
2022/12/27 09:16:18;;;;;;;9.70;5.00;;;;;;;7.44;74.78;101692.56;5007774;28;20459;-74
2022/12/27 09:18:47;;;;;;;15.45;6.82;;;;;;;7.41;74.74;101704.53;5004518;28;20428;-74
2022/12/27 09:21:13;;;;;;;15.93;6.95;;;;;;;7.40;74.84;101707.44;5006685;28;20401;-74
2022/12/27 09:23:39;;;;;;;16.83;7.30;;;;;;;7.37;74.51;101694.34;5013347;28;20466;-74
2022/12/27 09:26:13;;;;;;;9.82;5.15;;;;;;;7.33;74.97;101699.28;5010000;28;20396;-74
2022/12/27 09:28:39;;;;;;;14.90;5.60;;;;;;;7.40;74.90;101702.88;5010998;28;20482;-74
2022/12/27 09:31:04;;;;;;;18.05;8.30;;;;;;;7.49;74.28;101704.41;5006226;28;20421;-74
2022/12/27 09:33:31;;;;;;;10.52;6.00;;;;;;;7.47;74.62;101705.66;5002489;28;20415;-73
2022/12/27 09:36:03;;;;;;;7.45;4.75;;;;;;;7.53;74.26;101708.41;5007936;28;20405;-73
2022/12/27 09:38:29;;;;;;;7.97;3.40;;;;;;;7.55;74.19;101716.28;5006932;28;20419;-74
2022/12/27 09:40:58;;;;;;;8.02;4.35;;;;;;;7.70;74.28;101706.25;5009359;28;20408;-73
2022/12/27 09:43:35;;;;;;;22.37;9.60;;;;;;;7.84;73.92;101703.44;5009144;28;20519;-73
2022/12/27 09:46:01;;;;;;;15.63;6.93;;;;;;;8.00;73.28;101710.41;5004496;28;20412;-73
2022/12/27 09:48:33;;;;;;;19.85;8.98;;;;;;;8.25;73.69;101705.38;4999244;28;20458;-73
2022/12/27 09:51:14;;;;;;;21.42;9.45;;;;;;;8.53;72.75;101708.06;5004392;28;20402;-73
2022/12/27 09:53:49;;;;;;;10.90;5.57;;;;;;;8.67;72.41;101707.88;5008733;28;20409;-73
2022/12/27 09:56:23;;;;;;;7.05;3.25;;;;;;;8.66;71.95;101698.09;5012548;28;20725;-73
2022/12/27 09:58:51;;;;;;;3.53;2.65;;;;;;;8.59;71.76;101704.53;5012642;28;20467;-73
2022/12/27 10:01:18;;;;;;;5.10;2.53;;;;;;;8.56;72.39;101707.66;5011899;28;20400;-73
2022/12/27 10:03:44;;;;;;;5.18;3.30;;;;;;;8.57;71.99;101701.19;5010466;28;20807;-73
2022/12/27 10:06:41;;;;;;;3.40;2.70;;;;;;;8.65;72.36;101695.63;5014070;28;20409;-73
2022/12/27 10:09:31;;;;;;;6.45;3.45;;;;;;;8.70;72.27;101701.25;5004216;28;20404;-73
2022/12/27 10:12:11;;;;;;;5.00;2.60;;;;;;;8.74;72.43;101697.09;5007303;28;20523;-74
2022/12/27 10:15:05;;;;;;;5.97;2.83;;;;;;;8.81;71.86;101695.25;5000546;28;20425;-74
2022/12/27 10:17:45;;;;;;;4.80;2.10;;;;;;;8.86;71.75;101685.50;5009303;28;20511;-74
2022/12/27 10:20:22;;;;;;;3.05;1.88;;;;;;;9.02;71.36;101680.75;5008503;28;20420;-73
2022/12/27 10:22:57;;;;;;;4.35;1.70;;;;;;;9.09;70.83;101685.13;5002883;28;20435;-74
2022/12/27 10:25:24;;;;;;;3.17;1.80;;;;;;;9.20;70.17;101687.22;5004126;28;20762;-73
2022/12/27 10:28:09;;;;;;;5.25;1.55;;;;;;;9.49;69.23;101677.88;5007626;28;20404;-74
2022/12/27 10:30:34;;;;;;;2.15;1.10;;;;;;;9.60;68.88;101673.72;4994724;28;20420;-74
2022/12/27 10:32:59;;;;;;;2.10;1.67;;;;;;;9.65;68.52;101663.13;5000657;28;20412;-74
2022/12/27 10:35:25;;;;;;;3.67;1.27;;;;;;;9.69;68.00;101664.34;5004647;28;20424;-74
2022/12/27 10:37:52;;;;;;;3.00;1.10;;;;;;;9.71;67.86;101664.97;5006367;28;20492;-75
2022/12/27 10:40:22;;;;;;;2.33;0.90;;;;;;;9.73;67.33;101665.59;5004445;28;20416;-74
2022/12/27 10:43:01;;;;;;;4.32;0.82;;;;;;;9.76;66.82;101667.88;5001732;28;20515;-74
2022/12/27 10:45:35;;;;;;;4.80;1.08;;;;;;;9.71;66.99;101664.97;4999860;28;20420;-75
2022/12/27 10:48:15;;;;;;;4.22;0.93;;;;;;;9.69;67.04;101661.63;5003011;28;20443;-74
2022/12/27 10:50:47;;;;;;;1.40;0.95;;;;;;;9.70;66.94;101663.31;5004369;28;20850;-74
2022/12/27 10:53:29;;;;;;;1.85;1.00;;;;;;;9.80;66.82;101652.88;5017553;28;20939;-74
2022/12/27 10:56:06;;;;;;;4.78;2.47;;;;;;;9.81;66.98;101654.56;5004608;28;20507;-74
2022/12/27 10:58:39;;;;;;;5.72;1.70;;;;;;;9.81;66.86;101659.97;5004814;28;20910;-74
2022/12/27 11:01:05;;;;;;;4.97;1.90;;;;;;;9.76;67.16;101654.34;5004506;28;20428;-74
2022/12/27 11:03:31;;;;;;;3.35;1.50;;;;;;;9.70;66.97;101660.59;5005788;28;20439;-74
2022/12/27 11:06:14;;;;;;;2.40;1.25;;;;;;;9.65;67.01;101657.72;5009514;28;20912;-74
2022/12/27 11:08:40;;;;;;;4.28;1.50;;;;;;;9.59;67.45;101653.94;5003495;28;21082;-74
2022/12/27 11:11:15;;;;;;;4.93;2.03;;;;;;;9.62;67.56;101653.53;5002893;28;20503;-74
2022/12/27 11:13:41;;;;;;;3.73;1.30;;;;;;;9.61;66.86;101643.75;5008567;28;20462;-74
2022/12/27 11:16:14;;;;;;;5.70;2.33;;;;;;;9.64;66.89;101654.16;5004021;28;20458;-74
2022/12/27 11:18:44;;;;;;;4.68;2.45;;;;;;;9.61;66.88;101651.03;5006195;28;20482;-74
2022/12/27 11:21:12;;;;;;;7.22;2.40;;;;;;;9.55;66.95;101652.69;5004252;28;20890;-74
2022/12/27 11:23:43;;;;;;;5.43;2.15;;;;;;;9.55;66.77;101646.47;5008298;28;20416;-74
2022/12/27 11:26:18;;;;;;;6.95;2.75;;;;;;;9.56;66.95;101640.84;5006040;28;20412;-74
2022/12/27 11:28:51;;;;;;;5.43;3.22;;;;;;;9.62;66.94;101644.56;5005005;28;20767;-74
2022/12/27 11:31:24;;;;;;;7.20;2.88;;;;;;;9.61;66.94;101649.16;5003261;28;20420;-74
2022/12/27 11:33:53;;;;;;;6.10;2.75;;;;;;;9.54;66.69;101637.50;5005008;28;20408;-74
2022/12/27 11:36:36;;;;;;;5.32;2.25;;;;;;;9.55;67.05;101638.34;5003661;28;20412;-74
2022/12/27 11:39:02;;;;;;;3.03;1.95;;;;;;;9.53;66.86;101638.53;5002910;28;20424;-74
2022/12/27 11:41:47;;;;;;;5.25;1.75;;;;;;;9.57;67.04;101636.25;5002361;28;20973;-74
2022/12/27 11:44:35;;;;;;;2.72;1.40;;;;;;;9.65;66.64;101634.16;5002252;28;20405;-74
2022/12/27 11:47:11;;;;;;;4.53;1.92;;;;;;;9.62;66.76;101647.28;5008080;28;20413;-74
2022/12/27 11:49:44;;;;;;;5.28;2.20;;;;;;;9.65;66.61;101639.56;5003499;28;20408;-74
2022/12/27 11:52:44;;;;;;;3.38;1.85;;;;;;;9.69;66.65;101639.97;5008733;28;20903;-74
2022/12/27 11:55:56;;;;;;;4.78;2.10;;;;;;;9.71;66.34;101635.22;5016135;28;20419;-74
2022/12/27 11:58:27;;;;;;;3.70;1.67;;;;;;;9.68;66.44;101631.03;5010376;28;20464;-74
2022/12/27 12:01:09;;;;;;;10.47;4.13;;;;;;;9.72;66.66;101632.28;5008079;28;20471;-74
2022/12/27 12:03:47;;;;;;;9.10;2.63;;;;;;;9.77;66.85;101634.34;5003967;28;20429;-74
2022/12/27 12:06:40;;;;;;;8.00;2.88;;;;;;;9.79;66.93;101630.38;5003742;28;20518;-74
2022/12/27 12:09:20;;;;;;;6.75;2.15;;;;;;;9.83;66.77;101628.09;5002875;28;20940;-74
2022/12/27 12:11:54;;;;;;;3.97;1.73;;;;;;;9.85;66.72;101629.53;5001470;28;20421;-75
2022/12/27 12:14:52;;;;;;;4.93;2.10;;;;;;;9.90;67.03;101634.34;5000935;28;20429;-75
2022/12/27 12:17:29;;;;;;;6.93;3.28;;;;;;;9.97;66.85;101628.91;5001974;28;20982;-75
2022/12/27 12:20:25;;;;;;;7.37;3.43;;;;;;;10.00;66.79;101632.03;5018369;28;20439;-74
2022/12/27 12:23:08;;;;;;;8.32;2.45;;;;;;;9.98;67.03;101631.38;5008932;28;20498;-74
2022/12/27 12:25:59;;;;;;;5.30;1.83;;;;;;;9.96;66.96;101617.22;5003057;28;20771;-75
2022/12/27 12:28:55;;;;;;;4.50;1.37;;;;;;;9.94;66.95;101623.91;5003904;28;20412;-75
2022/12/27 12:31:48;;;;;;;4.00;1.60;;;;;;;9.86;67.04;101614.97;4999965;28;20891;-75
2022/12/27 12:34:46;;;;;;;5.95;1.88;;;;;;;9.87;66.95;101616.63;5000829;28;20413;-74
2022/12/27 12:37:21;;;;;;;2.08;1.17;;;;;;;9.85;66.63;101617.88;5001330;28;20413;-75
2022/12/27 12:40:23;;;;;;;4.75;1.38;;;;;;;9.85;66.34;101620.59;5000931;28;20427;-75
2022/12/27 12:43:09;;;;;;;3.90;1.05;;;;;;;9.83;65.94;101620.81;5004167;28;20404;-74
2022/12/27 12:46:12;;;;;;;3.60;1.73;;;;;;;9.87;65.89;101623.94;5002382;28;20937;-75
2022/12/27 12:48:40;;;;;;;2.70;1.40;;;;;;;9.84;65.67;101619.78;4999676;28;21033;-75
2022/12/27 12:51:29;;;;;;;3.40;1.70;;;;;;;9.80;65.81;101620.41;5002918;28;20417;-75
2022/12/27 12:54:14;;;;;;;2.45;2.00;;;;;;;9.80;65.66;101615.81;5003064;28;20405;-75
2022/12/27 12:57:05;;;;;;;5.28;1.42;;;;;;;9.78;65.75;101604.34;5001530;28;20456;-74
2022/12/27 12:59:37;;;;;;;1.77;1.20;;;;;;;9.73;65.79;101604.16;5002686;28;20479;-74
2022/12/27 13:02:43;;;;;;;7.05;1.92;;;;;;;9.73;65.65;101606.88;5003101;28;20444;-74
2022/12/27 13:05:24;;;;;;;7.72;1.90;;;;;;;9.68;66.12;101603.16;5007711;28;20815;-74
2022/12/27 13:08:00;;;;;;;4.00;1.10;;;;;;;9.68;66.09;101603.94;5002384;28;20412;-74
2022/12/27 13:10:52;;;;;;;5.63;1.25;;;;;;;9.67;66.26;101596.91;5003329;28;20413;-74
2022/12/27 13:13:51;;;;;;;5.13;1.55;;;;;;;9.63;66.29;101594.81;5004469;28;20425;-73
2022/12/27 13:16:29;;;;;;;4.55;1.20;;;;;;;9.63;66.05;101589.41;5002517;28;20749;-74
2022/12/27 13:19:13;;;;;;;5.80;1.10;;;;;;;9.67;66.33;101582.53;5004922;28;20918;-74
2022/12/27 13:22:06;;;;;;;5.90;1.08;;;;;;;9.71;66.01;101586.47;5009474;28;20412;-74
2022/12/27 13:24:53;;;;;;;6.40;1.10;;;;;;;9.73;66.00;101579.81;5009819;28;20405;-74
2022/12/27 13:27:34;;;;;;;5.60;0.80;;;;;;;9.73;65.74;101581.69;5010465;28;20409;-74
2022/12/27 13:29:59;;;;;;;3.67;1.20;;;;;;;9.71;65.82;101579.19;5009055;28;20432;-74
2022/12/27 13:32:46;;;;;;;3.57;1.20;;;;;;;9.70;65.76;101582.09;5014263;28;20455;-74
2022/12/27 13:35:27;;;;;;;4.18;1.30;;;;;;;9.69;65.86;101578.56;5010958;28;20405;-74
2022/12/27 13:38:17;;;;;;;2.72;0.93;;;;;;;9.72;65.38;101582.72;5010892;28;20835;-74
2022/12/27 13:41:00;;;;;;;3.97;1.17;;;;;;;9.73;65.30;101579.81;5013669;28;20502;-74
2022/12/27 13:43:43;;;;;;;2.93;0.80;;;;;;;9.69;65.68;101581.28;5014517;28;20396;-74